sensor_id;sensor_type;location;lat;lon;timestamp;temperature;humidity
19930;DHT22;10127;47.780;9.606;2022-08-11T00:00:19;19.40;83.60
19930;DHT22;10127;47.780;9.606;2022-08-11T00:02:49;19.40;83.80
19930;DHT22;10127;47.780;9.606;2022-08-11T00:05:17;19.40;83.80
19930;DHT22;10127;47.780;9.606;2022-08-11T00:07:53;19.30;83.90
19930;DHT22;10127;47.780;9.606;2022-08-11T00:10:22;19.30;84.10
19930;DHT22;10127;47.780;9.606;2022-08-11T00:12:56;19.20;84.20
19930;DHT22;10127;47.780;9.606;2022-08-11T00:15:23;19.20;84.50
19930;DHT22;10127;47.780;9.606;2022-08-11T00:17:49;19.30;84.50
19930;DHT22;10127;47.780;9.606;2022-08-11T00:20:20;19.20;84.50
19930;DHT22;10127;47.780;9.606;2022-08-11T00:22:47;19.20;84.60
19930;DHT22;10127;47.780;9.606;2022-08-11T00:25:19;19.20;84.60
19930;DHT22;10127;47.780;9.606;2022-08-11T00:27:46;19.20;84.80
19930;DHT22;10127;47.780;9.606;2022-08-11T00:30:14;19.10;85.00
19930;DHT22;10127;47.780;9.606;2022-08-11T00:32:45;19.10;85.20
19930;DHT22;10127;47.780;9.606;2022-08-11T00:35:23;19.10;85.40
19930;DHT22;10127;47.780;9.606;2022-08-11T00:37:53;19.10;85.50
19930;DHT22;10127;47.780;9.606;2022-08-11T00:40:38;19.00;85.70
19930;DHT22;10127;47.780;9.606;2022-08-11T00:48:54;19.00;85.80
19930;DHT22;10127;47.780;9.606;2022-08-11T01:00:16;18.90;87.10
19930;DHT22;10127;47.780;9.606;2022-08-11T01:19:50;18.80;87.60
19930;DHT22;10127;47.780;9.606;2022-08-11T01:33:52;18.60;88.40
19930;DHT22;10127;47.780;9.606;2022-08-11T01:46:12;18.40;89.40
19930;DHT22;10127;47.780;9.606;2022-08-11T01:48:43;18.30;89.60
19930;DHT22;10127;47.780;9.606;2022-08-11T01:59:37;18.30;90.30
19930;DHT22;10127;47.780;9.606;2022-08-11T02:10:32;18.10;90.40
19930;DHT22;10127;47.780;9.606;2022-08-11T02:14:09;18.10;90.40
19930;DHT22;10127;47.780;9.606;2022-08-11T02:16:32;18.10;90.80
19930;DHT22;10127;47.780;9.606;2022-08-11T02:19:12;18.00;90.60
19930;DHT22;10127;47.780;9.606;2022-08-11T02:22:06;18.00;90.60
19930;DHT22;10127;47.780;9.606;2022-08-11T02:25:17;17.90;90.90
19930;DHT22;10127;47.780;9.606;2022-08-11T02:27:54;17.90;91.00
19930;DHT22;10127;47.780;9.606;2022-08-11T02:30:24;17.90;91.00
19930;DHT22;10127;47.780;9.606;2022-08-11T02:33:15;17.80;91.10
19930;DHT22;10127;47.780;9.606;2022-08-11T03:11:30;17.30;92.30
19930;DHT22;10127;47.780;9.606;2022-08-11T03:15:40;17.40;92.40
19930;DHT22;10127;47.780;9.606;2022-08-11T03:18:01;17.30;92.40
19930;DHT22;10127;47.780;9.606;2022-08-11T03:23:47;17.30;92.60
19930;DHT22;10127;47.780;9.606;2022-08-11T03:26:27;17.30;92.60
19930;DHT22;10127;47.780;9.606;2022-08-11T03:29:10;17.30;92.60
19930;DHT22;10127;47.780;9.606;2022-08-11T03:31:55;17.30;92.70
19930;DHT22;10127;47.780;9.606;2022-08-11T03:34:25;17.20;92.80
19930;DHT22;10127;47.780;9.606;2022-08-11T03:37:17;17.20;92.80
19930;DHT22;10127;47.780;9.606;2022-08-11T03:46:11;17.10;93.10
19930;DHT22;10127;47.780;9.606;2022-08-11T03:48:53;17.10;93.10
19930;DHT22;10127;47.780;9.606;2022-08-11T03:51:26;17.10;93.10
19930;DHT22;10127;47.780;9.606;2022-08-11T04:24:56;17.00;93.70
19930;DHT22;10127;47.780;9.606;2022-08-11T04:30:10;17.20;93.20
19930;DHT22;10127;47.780;9.606;2022-08-11T04:38:55;17.30;93.00
19930;DHT22;10127;47.780;9.606;2022-08-11T04:44:56;17.30;93.10
19930;DHT22;10127;47.780;9.606;2022-08-11T04:51:39;17.40;93.00
19930;DHT22;10127;47.780;9.606;2022-08-11T04:54:30;17.40;93.00
19930;DHT22;10127;47.780;9.606;2022-08-11T04:57:33;17.30;93.00
19930;DHT22;10127;47.780;9.606;2022-08-11T05:04:38;17.40;93.00
19930;DHT22;10127;47.780;9.606;2022-08-11T05:13:11;17.30;93.10
19930;DHT22;10127;47.780;9.606;2022-08-11T05:16:09;17.50;93.10
19930;DHT22;10127;47.780;9.606;2022-08-11T05:18:55;18.20;92.00
19930;DHT22;10127;47.780;9.606;2022-08-11T05:21:43;19.20;90.40
19930;DHT22;10127;47.780;9.606;2022-08-11T05:24:49;18.40;91.20
19930;DHT22;10127;47.780;9.606;2022-08-11T05:27:48;17.90;92.10
19930;DHT22;10127;47.780;9.606;2022-08-11T05:30:33;17.80;92.40
19930;DHT22;10127;47.780;9.606;2022-08-11T05:34:00;17.70;92.50
19930;DHT22;10127;47.780;9.606;2022-08-11T05:36:52;17.80;92.50
19930;DHT22;10127;47.780;9.606;2022-08-11T05:39:30;17.60;92.70
19930;DHT22;10127;47.780;9.606;2022-08-11T05:42:16;17.70;92.60
19930;DHT22;10127;47.780;9.606;2022-08-11T05:45:13;17.70;92.70
19930;DHT22;10127;47.780;9.606;2022-08-11T05:47:59;17.70;92.70
19930;DHT22;10127;47.780;9.606;2022-08-11T05:50:54;17.80;92.60
19930;DHT22;10127;47.780;9.606;2022-08-11T05:56:33;17.70;92.80
19930;DHT22;10127;47.780;9.606;2022-08-11T05:59:00;17.70;92.90
19930;DHT22;10127;47.780;9.606;2022-08-11T06:01:28;17.80;92.80
19930;DHT22;10127;47.780;9.606;2022-08-11T06:04:02;17.90;92.50
19930;DHT22;10127;47.780;9.606;2022-08-11T06:07:04;17.90;92.60
19930;DHT22;10127;47.780;9.606;2022-08-11T06:12:20;17.90;92.70
19930;DHT22;10127;47.780;9.606;2022-08-11T06:14:54;18.00;92.60
19930;DHT22;10127;47.780;9.606;2022-08-11T06:17:26;18.00;92.50
19930;DHT22;10127;47.780;9.606;2022-08-11T06:20:03;17.90;92.80
19930;DHT22;10127;47.780;9.606;2022-08-11T06:22:29;18.10;92.60
19930;DHT22;10127;47.780;9.606;2022-08-11T06:24:57;18.10;92.50
19930;DHT22;10127;47.780;9.606;2022-08-11T06:27:24;18.20;92.50
19930;DHT22;10127;47.780;9.606;2022-08-11T06:29:52;18.20;92.40
19930;DHT22;10127;47.780;9.606;2022-08-11T06:32:20;18.30;92.40
19930;DHT22;10127;47.780;9.606;2022-08-11T06:37:39;18.40;92.40
19930;DHT22;10127;47.780;9.606;2022-08-11T06:40:42;18.40;92.40
19930;DHT22;10127;47.780;9.606;2022-08-11T06:46:10;18.50;92.20
19930;DHT22;10127;47.780;9.606;2022-08-11T06:48:40;18.50;92.30
19930;DHT22;10127;47.780;9.606;2022-08-11T06:51:10;18.50;92.40
19930;DHT22;10127;47.780;9.606;2022-08-11T06:53:41;18.50;92.30
19930;DHT22;10127;47.780;9.606;2022-08-11T06:56:09;18.50;92.40
19930;DHT22;10127;47.780;9.606;2022-08-11T06:58:53;18.60;92.40
19930;DHT22;10127;47.780;9.606;2022-08-11T07:02:05;18.70;92.30
19930;DHT22;10127;47.780;9.606;2022-08-11T07:04:43;18.70;92.30
19930;DHT22;10127;47.780;9.606;2022-08-11T07:13:20;19.00;92.30
19930;DHT22;10127;47.780;9.606;2022-08-11T07:16:06;19.10;92.50
19930;DHT22;10127;47.780;9.606;2022-08-11T07:18:34;19.10;92.10
19930;DHT22;10127;47.780;9.606;2022-08-11T07:21:33;19.10;92.20
19930;DHT22;10127;47.780;9.606;2022-08-11T07:24:22;19.10;92.10
19930;DHT22;10127;47.780;9.606;2022-08-11T07:27:11;19.30;92.20
19930;DHT22;10127;47.780;9.606;2022-08-11T07:30:00;19.40;91.90
19930;DHT22;10127;47.780;9.606;2022-08-11T07:32:29;19.40;91.80
19930;DHT22;10127;47.780;9.606;2022-08-11T07:35:01;19.50;92.00
19930;DHT22;10127;47.780;9.606;2022-08-11T07:37:30;19.50;91.80
19930;DHT22;10127;47.780;9.606;2022-08-11T07:39:58;19.60;91.80
19930;DHT22;10127;47.780;9.606;2022-08-11T07:42:29;19.70;91.90
19930;DHT22;10127;47.780;9.606;2022-08-11T07:44:56;19.70;91.60
19930;DHT22;10127;47.780;9.606;2022-08-11T07:47:42;19.80;91.60
19930;DHT22;10127;47.780;9.606;2022-08-11T07:50:27;19.90;91.50
19930;DHT22;10127;47.780;9.606;2022-08-11T07:53:13;20.00;91.40
19930;DHT22;10127;47.780;9.606;2022-08-11T07:55:41;20.00;91.20
19930;DHT22;10127;47.780;9.606;2022-08-11T07:58:07;20.20;91.00
19930;DHT22;10127;47.780;9.606;2022-08-11T08:00:53;20.40;91.20
19930;DHT22;10127;47.780;9.606;2022-08-11T08:03:38;20.50;90.20
19930;DHT22;10127;47.780;9.606;2022-08-11T08:06:25;20.50;90.30
19930;DHT22;10127;47.780;9.606;2022-08-11T08:09:10;20.60;90.00
19930;DHT22;10127;47.780;9.606;2022-08-11T08:11:56;20.70;89.40
19930;DHT22;10127;47.780;9.606;2022-08-11T08:14:42;20.80;89.60
19930;DHT22;10127;47.780;9.606;2022-08-11T08:17:26;21.00;89.60
19930;DHT22;10127;47.780;9.606;2022-08-11T08:20:13;21.00;89.20
19930;DHT22;10127;47.780;9.606;2022-08-11T08:22:40;21.10;88.80
19930;DHT22;10127;47.780;9.606;2022-08-11T08:25:07;21.20;88.10
19930;DHT22;10127;47.780;9.606;2022-08-11T08:27:34;21.10;87.60
19930;DHT22;10127;47.780;9.606;2022-08-11T08:30:02;21.20;88.00
19930;DHT22;10127;47.780;9.606;2022-08-11T08:32:48;21.20;87.80
19930;DHT22;10127;47.780;9.606;2022-08-11T08:35:14;21.30;87.70
19930;DHT22;10127;47.780;9.606;2022-08-11T08:37:40;21.40;88.10
19930;DHT22;10127;47.780;9.606;2022-08-11T08:40:07;21.50;87.70
19930;DHT22;10127;47.780;9.606;2022-08-11T08:42:58;21.50;87.30
19930;DHT22;10127;47.780;9.606;2022-08-11T08:45:23;21.60;87.30
19930;DHT22;10127;47.780;9.606;2022-08-11T08:48:00;21.70;87.50
19930;DHT22;10127;47.780;9.606;2022-08-11T08:50:30;21.70;87.50
19930;DHT22;10127;47.780;9.606;2022-08-11T08:53:25;21.90;87.10
19930;DHT22;10127;47.780;9.606;2022-08-11T08:55:59;21.90;87.10
19930;DHT22;10127;47.780;9.606;2022-08-11T08:58:25;22.00;86.90
19930;DHT22;10127;47.780;9.606;2022-08-11T09:00:53;22.00;86.70
19930;DHT22;10127;47.780;9.606;2022-08-11T09:03:21;22.10;86.50
19930;DHT22;10127;47.780;9.606;2022-08-11T09:05:47;22.10;86.80
19930;DHT22;10127;47.780;9.606;2022-08-11T09:08:16;22.20;86.50
19930;DHT22;10127;47.780;9.606;2022-08-11T09:10:46;22.30;86.10
19930;DHT22;10127;47.780;9.606;2022-08-11T09:13:32;22.40;85.90
19930;DHT22;10127;47.780;9.606;2022-08-11T09:15:58;22.40;85.90
19930;DHT22;10127;47.780;9.606;2022-08-11T09:18:24;22.40;86.00
19930;DHT22;10127;47.780;9.606;2022-08-11T09:20:51;22.50;85.70
19930;DHT22;10127;47.780;9.606;2022-08-11T09:23:17;22.50;85.40
19930;DHT22;10127;47.780;9.606;2022-08-11T09:26:02;22.70;84.90
19930;DHT22;10127;47.780;9.606;2022-08-11T09:28:47;22.70;84.40
19930;DHT22;10127;47.780;9.606;2022-08-11T09:31:15;22.80;84.30
19930;DHT22;10127;47.780;9.606;2022-08-11T09:33:42;22.90;83.80
19930;DHT22;10127;47.780;9.606;2022-08-11T09:36:08;23.00;84.30
19930;DHT22;10127;47.780;9.606;2022-08-11T09:38:53;23.00;83.80
19930;DHT22;10127;47.780;9.606;2022-08-11T09:41:43;23.10;84.00
19930;DHT22;10127;47.780;9.606;2022-08-11T09:44:09;23.10;83.80
19930;DHT22;10127;47.780;9.606;2022-08-11T09:46:55;23.10;83.80
19930;DHT22;10127;47.780;9.606;2022-08-11T09:49:24;23.20;83.30
19930;DHT22;10127;47.780;9.606;2022-08-11T09:51:51;23.10;83.40
19930;DHT22;10127;47.780;9.606;2022-08-11T09:54:18;23.10;83.90
19930;DHT22;10127;47.780;9.606;2022-08-11T09:56:44;23.20;83.70
19930;DHT22;10127;47.780;9.606;2022-08-11T09:59:28;23.30;83.50
19930;DHT22;10127;47.780;9.606;2022-08-11T10:02:00;23.30;83.00
19930;DHT22;10127;47.780;9.606;2022-08-11T10:07:03;23.30;83.00
19930;DHT22;10127;47.780;9.606;2022-08-11T10:09:48;23.30;83.00
19930;DHT22;10127;47.780;9.606;2022-08-11T10:12:23;23.40;83.20
19930;DHT22;10127;47.780;9.606;2022-08-11T10:14:55;23.50;82.90
19930;DHT22;10127;47.780;9.606;2022-08-11T10:17:45;23.50;83.00
19930;DHT22;10127;47.780;9.606;2022-08-11T10:20:34;23.50;82.80
19930;DHT22;10127;47.780;9.606;2022-08-11T10:23:01;23.50;82.80
19930;DHT22;10127;47.780;9.606;2022-08-11T10:25:47;23.60;82.60
19930;DHT22;10127;47.780;9.606;2022-08-11T10:28:34;23.70;82.40
19930;DHT22;10127;47.780;9.606;2022-08-11T10:31:02;23.70;82.30
19930;DHT22;10127;47.780;9.606;2022-08-11T10:33:48;23.70;82.80
19930;DHT22;10127;47.780;9.606;2022-08-11T10:36:33;23.70;82.30
19930;DHT22;10127;47.780;9.606;2022-08-11T10:39:02;23.70;82.00
19930;DHT22;10127;47.780;9.606;2022-08-11T10:41:29;23.60;82.60
19930;DHT22;10127;47.780;9.606;2022-08-11T10:44:14;23.80;82.60
19930;DHT22;10127;47.780;9.606;2022-08-11T10:46:41;23.80;82.50
19930;DHT22;10127;47.780;9.606;2022-08-11T10:49:26;23.90;82.30
19930;DHT22;10127;47.780;9.606;2022-08-11T10:51:54;24.00;82.40
19930;DHT22;10127;47.780;9.606;2022-08-11T10:54:40;23.90;82.50
19930;DHT22;10127;47.780;9.606;2022-08-11T10:57:26;24.00;81.90
19930;DHT22;10127;47.780;9.606;2022-08-11T11:00:11;24.10;81.70
19930;DHT22;10127;47.780;9.606;2022-08-11T11:02:41;24.10;82.10
19930;DHT22;10127;47.780;9.606;2022-08-11T11:07:37;24.30;81.80
19930;DHT22;10127;47.780;9.606;2022-08-11T11:10:05;24.30;81.70
19930;DHT22;10127;47.780;9.606;2022-08-11T11:12:38;24.40;81.30
19930;DHT22;10127;47.780;9.606;2022-08-11T11:15:24;24.40;81.50
19930;DHT22;10127;47.780;9.606;2022-08-11T11:18:26;24.40;81.10
19930;DHT22;10127;47.780;9.606;2022-08-11T11:21:02;24.50;81.70
19930;DHT22;10127;47.780;9.606;2022-08-11T11:32:31;25.00;80.50
19930;DHT22;10127;47.780;9.606;2022-08-11T11:37:36;25.10;79.90
19930;DHT22;10127;47.780;9.606;2022-08-11T11:40:08;25.00;79.80
19930;DHT22;10127;47.780;9.606;2022-08-11T11:42:43;25.10;79.00
19930;DHT22;10127;47.780;9.606;2022-08-11T11:45:10;25.20;79.20
19930;DHT22;10127;47.780;9.606;2022-08-11T11:47:39;25.20;78.60
19930;DHT22;10127;47.780;9.606;2022-08-11T11:50:06;25.30;78.40
19930;DHT22;10127;47.780;9.606;2022-08-11T11:52:33;25.30;78.50
19930;DHT22;10127;47.780;9.606;2022-08-11T11:54:59;25.40;78.10
19930;DHT22;10127;47.780;9.606;2022-08-11T11:57:27;25.50;77.50
19930;DHT22;10127;47.780;9.606;2022-08-11T12:00:12;25.50;77.70
19930;DHT22;10127;47.780;9.606;2022-08-11T12:02:58;25.60;76.90
19930;DHT22;10127;47.780;9.606;2022-08-11T12:05:25;25.70;77.30
19930;DHT22;10127;47.780;9.606;2022-08-11T12:07:53;25.70;76.90
19930;DHT22;10127;47.780;9.606;2022-08-11T12:10:46;25.90;76.30
19930;DHT22;10127;47.780;9.606;2022-08-11T12:13:15;25.90;76.80
19930;DHT22;10127;47.780;9.606;2022-08-11T12:16:00;25.80;76.90
19930;DHT22;10127;47.780;9.606;2022-08-11T12:18:33;25.80;76.70
19930;DHT22;10127;47.780;9.606;2022-08-11T12:21:00;25.90;76.50
19930;DHT22;10127;47.780;9.606;2022-08-11T12:23:27;25.80;74.90
19930;DHT22;10127;47.780;9.606;2022-08-11T12:26:13;25.70;76.70
19930;DHT22;10127;47.780;9.606;2022-08-11T12:28:59;25.70;74.60
19930;DHT22;10127;47.780;9.606;2022-08-11T12:31:27;25.80;75.20
19930;DHT22;10127;47.780;9.606;2022-08-11T12:34:09;25.70;75.10
19930;DHT22;10127;47.780;9.606;2022-08-11T12:36:41;25.80;76.10
19930;DHT22;10127;47.780;9.606;2022-08-11T12:39:12;26.20;75.30
19930;DHT22;10127;47.780;9.606;2022-08-11T12:41:42;26.20;75.20
19930;DHT22;10127;47.780;9.606;2022-08-11T12:44:28;26.30;75.00
19930;DHT22;10127;47.780;9.606;2022-08-11T12:47:17;26.20;74.70
19930;DHT22;10127;47.780;9.606;2022-08-11T12:49:46;26.30;74.50
19930;DHT22;10127;47.780;9.606;2022-08-11T12:52:44;26.30;73.60
19930;DHT22;10127;47.780;9.606;2022-08-11T12:55:15;26.20;73.90
19930;DHT22;10127;47.780;9.606;2022-08-11T12:58:02;26.20;74.10
19930;DHT22;10127;47.780;9.606;2022-08-11T13:00:45;26.20;74.60
19930;DHT22;10127;47.780;9.606;2022-08-11T13:03:32;26.30;74.10
19930;DHT22;10127;47.780;9.606;2022-08-11T13:06:18;26.30;74.50
19930;DHT22;10127;47.780;9.606;2022-08-11T13:08:47;26.50;73.60
19930;DHT22;10127;47.780;9.606;2022-08-11T13:11:15;26.60;72.80
19930;DHT22;10127;47.780;9.606;2022-08-11T13:14:00;26.60;72.30
19930;DHT22;10127;47.780;9.606;2022-08-11T13:16:29;26.60;73.00
19930;DHT22;10127;47.780;9.606;2022-08-11T13:18:57;26.70;73.00
19930;DHT22;10127;47.780;9.606;2022-08-11T13:21:25;26.60;72.90
19930;DHT22;10127;47.780;9.606;2022-08-11T13:23:53;26.60;73.30
19930;DHT22;10127;47.780;9.606;2022-08-11T13:26:22;26.60;73.10
19930;DHT22;10127;47.780;9.606;2022-08-11T13:28:48;26.70;73.60
19930;DHT22;10127;47.780;9.606;2022-08-11T13:31:14;26.70;73.20
19930;DHT22;10127;47.780;9.606;2022-08-11T13:33:43;26.70;73.30
19930;DHT22;10127;47.780;9.606;2022-08-11T13:36:11;26.60;73.60
19930;DHT22;10127;47.780;9.606;2022-08-11T13:38:39;26.80;73.70
19930;DHT22;10127;47.780;9.606;2022-08-11T13:41:06;26.90;72.20
19930;DHT22;10127;47.780;9.606;2022-08-11T13:43:53;27.00;71.90
19930;DHT22;10127;47.780;9.606;2022-08-11T13:46:20;27.10;71.50
19930;DHT22;10127;47.780;9.606;2022-08-11T13:48:47;27.10;70.20
19930;DHT22;10127;47.780;9.606;2022-08-11T13:51:14;27.00;71.40
19930;DHT22;10127;47.780;9.606;2022-08-11T13:56:41;27.00;71.30
19930;DHT22;10127;47.780;9.606;2022-08-11T13:59:07;27.10;71.60
19930;DHT22;10127;47.780;9.606;2022-08-11T14:01:38;27.20;70.60
19930;DHT22;10127;47.780;9.606;2022-08-11T14:04:09;27.30;70.90
19930;DHT22;10127;47.780;9.606;2022-08-11T14:06:44;27.40;71.20
19930;DHT22;10127;47.780;9.606;2022-08-11T14:09:12;27.20;71.10
19930;DHT22;10127;47.780;9.606;2022-08-11T14:11:40;27.10;70.90
19930;DHT22;10127;47.780;9.606;2022-08-11T14:14:31;27.10;70.10
19930;DHT22;10127;47.780;9.606;2022-08-11T14:17:03;27.00;69.60
19930;DHT22;10127;47.780;9.606;2022-08-11T14:19:32;27.20;70.00
19930;DHT22;10127;47.780;9.606;2022-08-11T14:22:00;27.20;69.70
19930;DHT22;10127;47.780;9.606;2022-08-11T14:24:40;27.20;69.80
19930;DHT22;10127;47.780;9.606;2022-08-11T14:27:10;27.30;69.50
19930;DHT22;10127;47.780;9.606;2022-08-11T14:29:38;27.40;69.20
19930;DHT22;10127;47.780;9.606;2022-08-11T14:32:07;27.50;68.60
19930;DHT22;10127;47.780;9.606;2022-08-11T14:34:34;27.60;68.40
19930;DHT22;10127;47.780;9.606;2022-08-11T14:37:14;27.60;67.40
19930;DHT22;10127;47.780;9.606;2022-08-11T14:39:43;27.60;67.60
19930;DHT22;10127;47.780;9.606;2022-08-11T14:42:13;27.50;66.90
19930;DHT22;10127;47.780;9.606;2022-08-11T14:45:02;27.50;67.60
19930;DHT22;10127;47.780;9.606;2022-08-11T14:47:51;27.60;67.00
19930;DHT22;10127;47.780;9.606;2022-08-11T14:50:20;27.60;66.70
19930;DHT22;10127;47.780;9.606;2022-08-11T14:52:55;27.60;66.20
19930;DHT22;10127;47.780;9.606;2022-08-11T14:55:24;27.60;66.00
19930;DHT22;10127;47.780;9.606;2022-08-11T14:58:13;27.90;67.10
19930;DHT22;10127;47.780;9.606;2022-08-11T15:00:40;28.00;66.90
19930;DHT22;10127;47.780;9.606;2022-08-11T15:03:09;28.10;66.80
19930;DHT22;10127;47.780;9.606;2022-08-11T15:05:57;28.30;66.80
19930;DHT22;10127;47.780;9.606;2022-08-11T15:08:29;28.40;66.00
19930;DHT22;10127;47.780;9.606;2022-08-11T15:11:16;28.90;64.40
19930;DHT22;10127;47.780;9.606;2022-08-11T15:14:02;29.10;64.20
19930;DHT22;10127;47.780;9.606;2022-08-11T15:16:28;28.80;64.20
19930;DHT22;10127;47.780;9.606;2022-08-11T15:19:13;28.40;64.20
19930;DHT22;10127;47.780;9.606;2022-08-11T15:21:40;28.50;64.60
19930;DHT22;10127;47.780;9.606;2022-08-11T15:24:24;28.50;64.40
19930;DHT22;10127;47.780;9.606;2022-08-11T15:26:51;28.50;65.00
19930;DHT22;10127;47.780;9.606;2022-08-11T15:29:38;28.60;64.70
19930;DHT22;10127;47.780;9.606;2022-08-11T15:32:24;28.80;64.90
19930;DHT22;10127;47.780;9.606;2022-08-11T15:35:10;28.60;63.80
19930;DHT22;10127;47.780;9.606;2022-08-11T15:37:57;28.70;63.80
19930;DHT22;10127;47.780;9.606;2022-08-11T15:40:30;28.80;63.70
19930;DHT22;10127;47.780;9.606;2022-08-11T15:43:34;28.70;63.40
19930;DHT22;10127;47.780;9.606;2022-08-11T15:46:41;28.90;63.50
19930;DHT22;10127;47.780;9.606;2022-08-11T15:49:22;29.10;62.90
19930;DHT22;10127;47.780;9.606;2022-08-11T15:54:29;29.20;62.10
19930;DHT22;10127;47.780;9.606;2022-08-11T15:56:57;29.50;61.50
19930;DHT22;10127;47.780;9.606;2022-08-11T15:59:24;29.70;61.50
19930;DHT22;10127;47.780;9.606;2022-08-11T16:02:14;31.30;60.20
19930;DHT22;10127;47.780;9.606;2022-08-11T16:05:01;34.90;55.70
19930;DHT22;10127;47.780;9.606;2022-08-11T16:07:31;36.60;51.90
19930;DHT22;10127;47.780;9.606;2022-08-11T16:13:02;37.20;48.80
19930;DHT22;10127;47.780;9.606;2022-08-11T16:16:00;34.30;51.40
19930;DHT22;10127;47.780;9.606;2022-08-11T16:18:53;32.00;56.40
19930;DHT22;10127;47.780;9.606;2022-08-11T16:21:34;31.00;57.60
19930;DHT22;10127;47.780;9.606;2022-08-11T16:24:03;30.40;59.00
19930;DHT22;10127;47.780;9.606;2022-08-11T16:26:31;29.60;60.50
19930;DHT22;10127;47.780;9.606;2022-08-11T16:28:59;29.20;61.50
19930;DHT22;10127;47.780;9.606;2022-08-11T16:31:27;29.00;61.50
19930;DHT22;10127;47.780;9.606;2022-08-11T16:33:54;28.80;62.70
19930;DHT22;10127;47.780;9.606;2022-08-11T16:36:23;28.50;63.40
19930;DHT22;10127;47.780;9.606;2022-08-11T16:39:09;28.40;63.70
19930;DHT22;10127;47.780;9.606;2022-08-11T16:41:38;28.40;63.80
19930;DHT22;10127;47.780;9.606;2022-08-11T16:44:24;28.50;63.90
19930;DHT22;10127;47.780;9.606;2022-08-11T16:47:13;28.60;64.00
19930;DHT22;10127;47.780;9.606;2022-08-11T16:49:52;28.50;64.30
19930;DHT22;10127;47.780;9.606;2022-08-11T16:52:20;28.40;64.00
19930;DHT22;10127;47.780;9.606;2022-08-11T16:54:47;28.20;63.80
19930;DHT22;10127;47.780;9.606;2022-08-11T16:57:25;28.20;64.00
19930;DHT22;10127;47.780;9.606;2022-08-11T17:00:14;28.10;64.50
19930;DHT22;10127;47.780;9.606;2022-08-11T17:02:50;28.00;64.60
19930;DHT22;10127;47.780;9.606;2022-08-11T17:05:37;27.90;65.30
19930;DHT22;10127;47.780;9.606;2022-08-11T17:08:32;27.80;64.50
19930;DHT22;10127;47.780;9.606;2022-08-11T17:11:18;27.70;65.10
19930;DHT22;10127;47.780;9.606;2022-08-11T17:14:12;27.50;65.10
19930;DHT22;10127;47.780;9.606;2022-08-11T17:16:40;27.50;65.60
19930;DHT22;10127;47.780;9.606;2022-08-11T17:19:21;27.40;66.20
19930;DHT22;10127;47.780;9.606;2022-08-11T17:21:50;27.40;67.50
19930;DHT22;10127;47.780;9.606;2022-08-11T17:24:36;27.40;67.80
19930;DHT22;10127;47.780;9.606;2022-08-11T17:27:04;27.30;67.80
19930;DHT22;10127;47.780;9.606;2022-08-11T17:32:06;27.20;68.50
19930;DHT22;10127;47.780;9.606;2022-08-11T17:35:13;27.10;69.10
19930;DHT22;10127;47.780;9.606;2022-08-11T17:38:08;26.90;69.40
19930;DHT22;10127;47.780;9.606;2022-08-11T17:40:36;26.90;69.70
19930;DHT22;10127;47.780;9.606;2022-08-11T17:43:07;26.80;69.90
19930;DHT22;10127;47.780;9.606;2022-08-11T17:45:53;26.70;70.00
19930;DHT22;10127;47.780;9.606;2022-08-11T17:48:52;26.70;70.40
19930;DHT22;10127;47.780;9.606;2022-08-11T17:51:18;26.60;70.40
19930;DHT22;10127;47.780;9.606;2022-08-11T17:54:05;26.50;70.70
19930;DHT22;10127;47.780;9.606;2022-08-11T17:56:51;26.50;70.70
19930;DHT22;10127;47.780;9.606;2022-08-11T17:59:36;26.60;70.50
19930;DHT22;10127;47.780;9.606;2022-08-11T18:02:21;28.10;68.30
19930;DHT22;10127;47.780;9.606;2022-08-11T18:05:07;29.20;65.40
19930;DHT22;10127;47.780;9.606;2022-08-11T18:07:34;28.50;65.20
19930;DHT22;10127;47.780;9.606;2022-08-11T18:10:19;27.60;67.40
19930;DHT22;10127;47.780;9.606;2022-08-11T18:13:05;27.10;69.10
19930;DHT22;10127;47.780;9.606;2022-08-11T18:15:50;26.70;69.90
19930;DHT22;10127;47.780;9.606;2022-08-11T18:18:34;26.40;70.90
19930;DHT22;10127;47.780;9.606;2022-08-11T18:21:20;26.20;71.50
19930;DHT22;10127;47.780;9.606;2022-08-11T18:24:11;26.00;72.10
19930;DHT22;10127;47.780;9.606;2022-08-11T18:26:59;25.90;72.30
19930;DHT22;10127;47.780;9.606;2022-08-11T18:29:45;25.80;72.60
19930;DHT22;10127;47.780;9.606;2022-08-11T18:32:33;25.60;73.00
19930;DHT22;10127;47.780;9.606;2022-08-11T18:35:20;25.50;73.20
19930;DHT22;10127;47.780;9.606;2022-08-11T18:38:09;25.50;73.70
19930;DHT22;10127;47.780;9.606;2022-08-11T18:40:54;25.30;74.00
19930;DHT22;10127;47.780;9.606;2022-08-11T18:43:42;25.30;74.30
19930;DHT22;10127;47.780;9.606;2022-08-11T18:46:32;25.20;74.50
19930;DHT22;10127;47.780;9.606;2022-08-11T18:49:21;25.10;74.80
19930;DHT22;10127;47.780;9.606;2022-08-11T18:52:07;25.00;75.20
19930;DHT22;10127;47.780;9.606;2022-08-11T18:54:55;24.90;75.50
19930;DHT22;10127;47.780;9.606;2022-08-11T18:57:41;24.80;75.90
19930;DHT22;10127;47.780;9.606;2022-08-11T19:00:27;24.70;76.20
19930;DHT22;10127;47.780;9.606;2022-08-11T19:03:13;24.70;76.40
19930;DHT22;10127;47.780;9.606;2022-08-11T19:06:01;24.60;76.70
19930;DHT22;10127;47.780;9.606;2022-08-11T19:08:50;24.50;77.30
19930;DHT22;10127;47.780;9.606;2022-08-11T19:11:37;24.40;78.40
19930;DHT22;10127;47.780;9.606;2022-08-11T19:14:22;24.30;79.20
19930;DHT22;10127;47.780;9.606;2022-08-11T19:17:08;24.20;79.60
19930;DHT22;10127;47.780;9.606;2022-08-11T19:19:54;24.10;79.90
19930;DHT22;10127;47.780;9.606;2022-08-11T19:22:40;24.00;80.30
19930;DHT22;10127;47.780;9.606;2022-08-11T19:25:26;23.90;80.40
19930;DHT22;10127;47.780;9.606;2022-08-11T19:28:13;23.80;80.50
19930;DHT22;10127;47.780;9.606;2022-08-11T19:30:58;23.70;80.80
19930;DHT22;10127;47.780;9.606;2022-08-11T19:33:44;23.70;80.80
19930;DHT22;10127;47.780;9.606;2022-08-11T19:36:30;23.60;80.90
19930;DHT22;10127;47.780;9.606;2022-08-11T19:39:18;23.60;81.00
19930;DHT22;10127;47.780;9.606;2022-08-11T19:42:06;23.50;81.10
19930;DHT22;10127;47.780;9.606;2022-08-11T19:44:52;23.40;81.40
19930;DHT22;10127;47.780;9.606;2022-08-11T19:47:37;23.30;81.30
19930;DHT22;10127;47.780;9.606;2022-08-11T19:50:23;23.20;81.50
19930;DHT22;10127;47.780;9.606;2022-08-11T19:53:08;23.10;81.70
19930;DHT22;10127;47.780;9.606;2022-08-11T19:55:52;23.10;81.70
19930;DHT22;10127;47.780;9.606;2022-08-11T19:58:39;23.10;81.80
19930;DHT22;10127;47.780;9.606;2022-08-11T20:01:23;23.00;81.80
19930;DHT22;10127;47.780;9.606;2022-08-11T20:04:08;22.90;81.90
19930;DHT22;10127;47.780;9.606;2022-08-11T20:06:53;22.90;81.90
19930;DHT22;10127;47.780;9.606;2022-08-11T20:09:41;22.80;82.00
19930;DHT22;10127;47.780;9.606;2022-08-11T20:12:26;22.70;82.10
19930;DHT22;10127;47.780;9.606;2022-08-11T20:15:12;22.60;82.20
19930;DHT22;10127;47.780;9.606;2022-08-11T20:17:58;22.60;82.20